sensor_id;sensor_type;location;lat;lon;timestamp;P1;durP1;ratioP1;P2;durP2;ratioP2
46633;SDS011;32362;49.986;8.026;2022-08-02T00:22:49;3.17;;;2.42;;
46633;SDS011;32362;49.986;8.026;2022-08-02T00:49:30;3.95;;;2.50;;
46633;SDS011;32362;49.986;8.026;2022-08-02T01:16:13;3.30;;;2.90;;
46633;SDS011;32362;49.986;8.026;2022-08-02T01:42:55;4.03;;;2.55;;
46633;SDS011;32362;49.986;8.026;2022-08-02T02:09:39;4.95;;;3.13;;
46633;SDS011;32362;49.986;8.026;2022-08-02T02:36:20;4.18;;;3.05;;
46633;SDS011;32362;49.986;8.026;2022-08-02T03:03:02;4.00;;;3.53;;
46633;SDS011;32362;49.986;8.026;2022-08-02T03:29:43;3.83;;;2.97;;
46633;SDS011;32362;49.986;8.026;2022-08-02T03:56:25;5.10;;;3.40;;
46633;SDS011;32362;49.986;8.026;2022-08-02T04:23:07;4.65;;;3.95;;
46633;SDS011;32362;49.986;8.026;2022-08-02T04:49:49;7.47;;;4.13;;
46633;SDS011;32362;49.986;8.026;2022-08-02T05:16:30;5.03;;;4.45;;
46633;SDS011;32362;49.986;8.026;2022-08-02T05:43:12;6.05;;;4.60;;
46633;SDS011;32362;49.986;8.026;2022-08-02T06:09:53;5.90;;;4.15;;
46633;SDS011;32362;49.986;8.026;2022-08-02T06:36:41;4.70;;;4.20;;
46633;SDS011;32362;49.986;8.026;2022-08-02T07:03:26;4.63;;;4.00;;
46633;SDS011;32362;49.986;8.026;2022-08-02T07:30:07;4.82;;;3.40;;
46633;SDS011;32362;49.986;8.026;2022-08-02T07:56:48;3.63;;;1.90;;
46633;SDS011;32362;49.986;8.026;2022-08-02T08:23:29;1.40;;;1.30;;
46633;SDS011;32362;49.986;8.026;2022-08-02T08:50:12;0.90;;;0.90;;
46633;SDS011;32362;49.986;8.026;2022-08-02T09:17:06;4.13;;;1.20;;
46633;SDS011;32362;49.986;8.026;2022-08-02T09:43:48;1.45;;;0.82;;
46633;SDS011;32362;49.986;8.026;2022-08-02T10:10:29;1.83;;;0.73;;
46633;SDS011;32362;49.986;8.026;2022-08-02T10:37:10;1.17;;;0.80;;
46633;SDS011;32362;49.986;8.026;2022-08-02T11:03:56;0.77;;;0.77;;
46633;SDS011;32362;49.986;8.026;2022-08-02T11:30:38;1.15;;;0.82;;
46633;SDS011;32362;49.986;8.026;2022-08-02T11:57:20;2.53;;;1.43;;
46633;SDS011;32362;49.986;8.026;2022-08-02T12:24:01;1.77;;;0.90;;
46633;SDS011;32362;49.986;8.026;2022-08-02T12:50:42;2.70;;;0.90;;
46633;SDS011;32362;49.986;8.026;2022-08-02T13:17:23;2.58;;;0.80;;
46633;SDS011;32362;49.986;8.026;2022-08-02T13:44:04;0.80;;;0.60;;
46633;SDS011;32362;49.986;8.026;2022-08-02T14:10:45;1.20;;;0.75;;
46633;SDS011;32362;49.986;8.026;2022-08-02T14:37:26;2.13;;;0.80;;
46633;SDS011;32362;49.986;8.026;2022-08-02T15:04:07;2.03;;;0.70;;
46633;SDS011;32362;49.986;8.026;2022-08-02T15:30:48;2.95;;;0.77;;
46633;SDS011;32362;49.986;8.026;2022-08-02T15:57:29;0.70;;;0.70;;
46633;SDS011;32362;49.986;8.026;2022-08-02T16:24:10;1.67;;;0.70;;
46633;SDS011;32362;49.986;8.026;2022-08-02T16:50:51;1.00;;;0.73;;
46633;SDS011;32362;49.986;8.026;2022-08-02T17:17:32;2.15;;;0.65;;
46633;SDS011;32362;49.986;8.026;2022-08-02T17:44:13;1.13;;;0.80;;
46633;SDS011;32362;49.986;8.026;2022-08-02T18:10:53;1.43;;;0.70;;
46633;SDS011;32362;49.986;8.026;2022-08-02T18:37:35;0.82;;;0.82;;
46633;SDS011;32362;49.986;8.026;2022-08-02T19:04:16;2.87;;;0.90;;
46633;SDS011;32362;49.986;8.026;2022-08-02T19:30:57;3.03;;;1.03;;
46633;SDS011;32362;49.986;8.026;2022-08-02T19:57:39;1.30;;;1.10;;
46633;SDS011;32362;49.986;8.026;2022-08-02T20:51:01;3.22;;;1.55;;
46633;SDS011;32362;49.986;8.026;2022-08-02T21:17:41;6.63;;;2.63;;
46633;SDS011;32362;49.986;8.026;2022-08-02T21:44:22;5.78;;;1.90;;
46633;SDS011;32362;49.986;8.026;2022-08-02T22:11:03;3.20;;;1.63;;
46633;SDS011;32362;49.986;8.026;2022-08-02T22:37:44;2.47;;;1.48;;
46633;SDS011;32362;49.986;8.026;2022-08-02T23:04:25;1.87;;;1.40;;
46633;SDS011;32362;49.986;8.026;2022-08-02T23:58:10;3.00;;;1.20;;
